Time;durP1;ratioP1;P1;durP2;ratioP2;P2;SDS_P1;SDS_P2;PMS_P1;PMS_P2;Temp;Humidity;BMP_temperature;BMP_pressure;BME280_temperature;BME280_humidity;BME280_pressure;Samples;Min_cycle;Max_cycle;Signal;HPM_P1;HPM_P2
2023/11/05 00:01:01;;;;;;;2.10;1.00;;;;;;;8.44;100.00;92137.75;5070627;28;20044;-83
2023/11/05 00:03:28;;;;;;;1.65;0.40;;;;;;;8.48;100.00;92138.84;5062004;28;20059;-84
2023/11/05 00:05:55;;;;;;;1.90;0.60;;;;;;;8.45;100.00;92141.06;5066855;28;20600;-85
2023/11/05 00:08:22;;;;;;;0.70;0.30;;;;;;;8.43;100.00;92133.63;5065968;28;20059;-83
2023/11/05 00:10:48;;;;;;;2.35;0.50;;;;;;;8.40;100.00;92137.41;5065724;28;20045;-83
2023/11/05 00:13:15;;;;;;;3.63;0.50;;;;;;;8.38;100.00;92143.75;5066052;28;20051;-84
2023/11/05 00:15:42;;;;;;;1.88;0.30;;;;;;;8.36;100.00;92123.50;5071514;28;20044;-83
2023/11/05 00:18:10;;;;;;;1.33;0.30;;;;;;;8.36;100.00;92122.72;5066082;28;20053;-83
2023/11/05 00:20:37;;;;;;;4.57;0.50;;;;;;;8.48;100.00;92131.16;5065811;28;20044;-83
2023/11/05 00:23:04;;;;;;;1.23;0.30;;;;;;;8.46;100.00;92142.66;5069556;28;20044;-84
2023/11/05 00:25:31;;;;;;;1.85;0.30;;;;;;;8.43;100.00;92133.63;5067918;28;20045;-83
2023/11/05 00:27:58;;;;;;;2.45;0.30;;;;;;;8.48;100.00;92138.06;5066261;28;20536;-83
2023/11/05 00:30:25;;;;;;;2.70;0.40;;;;;;;8.48;100.00;92132.94;5060374;28;20501;-84
2023/11/05 00:32:51;;;;;;;2.95;0.43;;;;;;;8.42;100.00;92126.94;5066534;28;20059;-82
2023/11/05 00:35:20;;;;;;;2.80;0.50;;;;;;;8.38;100.00;92111.25;5061432;28;20056;-84
2023/11/05 00:37:46;;;;;;;1.50;0.40;;;;;;;8.44;100.00;92107.03;5067290;28;20080;-84
2023/11/05 00:40:13;;;;;;;3.83;0.90;;;;;;;8.52;100.00;92113.63;5064346;28;20055;-83
2023/11/05 00:42:40;;;;;;;3.55;0.95;;;;;;;8.47;100.00;92106.56;5067734;28;20048;-85
2023/11/05 00:45:08;;;;;;;3.38;0.43;;;;;;;8.47;100.00;92088.66;5065567;28;20381;-84
2023/11/05 00:47:35;;;;;;;1.95;0.47;;;;;;;8.42;100.00;92083.44;5070071;28;20105;-83
2023/11/05 00:50:02;;;;;;;4.68;0.60;;;;;;;8.42;100.00;92094.47;5069307;28;20044;-83
2023/11/05 00:52:30;;;;;;;2.35;0.55;;;;;;;8.36;100.00;92087.69;5067722;28;20421;-82
2023/11/05 00:54:57;;;;;;;3.20;0.68;;;;;;;8.39;100.00;92094.13;5064381;28;20056;-82
2023/11/05 00:57:24;;;;;;;2.72;0.63;;;;;;;8.49;100.00;92101.22;5068405;28;20049;-83
2023/11/05 01:00:02;;;;;;;3.13;0.45;;;;;;;8.53;100.00;92097.25;5068621;28;20041;-82
2023/11/05 01:02:32;;;;;;;4.63;0.77;;;;;;;8.50;100.00;92095.09;5071491;28;20047;-83
2023/11/05 01:05:00;;;;;;;3.42;0.70;;;;;;;8.55;100.00;92100.38;5067368;28;20763;-82
2023/11/05 01:07:35;;;;;;;2.72;0.77;;;;;;;8.00;100.00;92012.72;5065023;28;20572;-83
2023/11/05 01:10:04;;;;;;;1.80;0.60;;;;;;;8.34;100.00;92064.06;5067956;28;20533;-82
2023/11/05 01:12:31;;;;;;;1.90;0.80;;;;;;;8.61;100.00;92088.47;5068621;28;20074;-83
2023/11/05 01:14:58;;;;;;;3.05;0.70;;;;;;;8.58;100.00;92104.25;5068788;28;20048;-83
2023/11/05 01:17:25;;;;;;;3.97;1.05;;;;;;;8.65;100.00;92103.13;5068699;28;20044;-82
2023/11/05 01:19:52;;;;;;;2.42;0.60;;;;;;;8.66;100.00;92102.13;5067316;28;20056;-82
2023/11/05 01:22:18;;;;;;;4.90;0.75;;;;;;;8.66;100.00;92104.69;5067761;28;20047;-83
2023/11/05 01:24:45;;;;;;;2.25;0.40;;;;;;;8.71;100.00;92106.59;5070598;28;20728;-84
2023/11/05 01:27:13;;;;;;;2.35;0.70;;;;;;;8.71;100.00;92110.94;5067222;28;20052;-82
2023/11/05 01:29:40;;;;;;;2.15;0.50;;;;;;;8.68;100.00;92112.94;5062563;28;20045;-83
2023/11/05 01:32:08;;;;;;;1.67;0.50;;;;;;;8.66;100.00;92102.13;5067363;28;20045;-83
2023/11/05 01:34:35;;;;;;;2.50;0.80;;;;;;;8.61;100.00;92094.34;5062457;28;20048;-83
2023/11/05 01:37:02;;;;;;;1.83;0.40;;;;;;;8.74;100.00;92105.38;5066062;28;20037;-82
2023/11/05 01:39:29;;;;;;;2.28;0.73;;;;;;;8.74;100.00;92106.13;5066334;28;20129;-82
2023/11/05 01:41:55;;;;;;;3.22;0.88;;;;;;;8.68;100.00;92102.69;5066246;28;20092;-82
2023/11/05 01:44:26;;;;;;;2.67;0.70;;;;;;;8.69;100.00;92100.91;5066683;28;20048;-82
2023/11/05 01:46:53;;;;;;;4.65;1.25;;;;;;;8.45;100.00;92084.75;5066762;28;20049;-82
2023/11/05 01:49:20;;;;;;;3.22;0.60;;;;;;;8.25;100.00;92080.78;5065989;28;20048;-83
2023/11/05 01:51:47;;;;;;;2.38;0.52;;;;;;;8.49;100.00;92112.25;5066633;28;20119;-82
2023/11/05 01:54:14;;;;;;;2.78;0.60;;;;;;;8.45;100.00;92113.69;5066974;28;20049;-81
2023/11/05 01:56:41;;;;;;;2.15;0.50;;;;;;;8.45;100.00;92108.59;5070437;28;20052;-83
2023/11/05 01:59:08;;;;;;;1.73;0.43;;;;;;;8.40;100.00;92121.28;5070766;28;20146;-82
2023/11/05 02:01:38;;;;;;;1.85;0.40;;;;;;;8.39;100.00;92129.94;5055703;28;20551;-83
2023/11/05 02:04:05;;;;;;;1.95;0.47;;;;;;;8.42;100.00;92132.06;5060231;28;20052;-83
2023/11/05 02:06:32;;;;;;;4.43;0.70;;;;;;;8.39;100.00;92125.59;5072238;28;20059;-84
2023/11/05 02:08:59;;;;;;;1.13;0.30;;;;;;;8.40;100.00;92118.72;5067791;28;20040;-82
2023/11/05 02:11:26;;;;;;;1.45;0.40;;;;;;;8.33;100.00;92105.25;5071499;28;20049;-82
2023/11/05 02:13:54;;;;;;;1.55;0.40;;;;;;;8.45;100.00;92123.16;5069832;28;20040;-82
2023/11/05 02:16:23;;;;;;;2.22;0.57;;;;;;;8.30;100.00;92103.91;5066874;28;20040;-80
2023/11/05 02:18:51;;;;;;;2.35;0.30;;;;;;;8.21;100.00;92103.47;5074086;28;20087;-81
2023/11/05 02:21:25;;;;;;;2.42;0.55;;;;;;;8.39;100.00;92132.50;5066811;28;20048;-79
2023/11/05 02:23:53;;;;;;;3.58;0.40;;;;;;;8.42;100.00;92137.16;5069877;28;20052;-79
2023/11/05 02:26:20;;;;;;;1.98;0.50;;;;;;;8.39;100.00;92132.50;5064712;28;20055;-80
2023/11/05 02:28:47;;;;;;;1.98;0.50;;;;;;;8.08;100.00;92072.97;5068846;28;20899;-79
2023/11/05 02:31:14;;;;;;;2.70;0.60;;;;;;;8.38;100.00;92128.41;5067189;28;20150;-79
2023/11/05 02:33:42;;;;;;;1.90;0.50;;;;;;;8.37;100.00;92114.81;5070506;28;20093;-79
2023/11/05 02:36:10;;;;;;;4.60;0.95;;;;;;;8.41;100.00;92120.25;5064848;28;20044;-79
2023/11/05 02:38:37;;;;;;;3.10;0.73;;;;;;;8.39;100.00;92112.81;5064505;28;20045;-80
2023/11/05 02:41:06;;;;;;;3.17;1.38;;;;;;;8.41;100.00;92098.03;5066432;28;20053;-80
2023/11/05 02:43:33;;;;;;;4.43;0.80;;;;;;;8.39;100.00;92100.00;5066850;28;20048;-80
2023/11/05 02:46:01;;;;;;;6.05;0.85;;;;;;;7.98;100.00;92041.09;5066786;28;20129;-80
2023/11/05 02:48:27;;;;;;;3.80;0.60;;;;;;;8.42;100.00;92114.94;5063840;28;20567;-80
2023/11/05 02:50:54;;;;;;;4.55;0.80;;;;;;;8.45;100.00;92107.78;5070077;28;20052;-81
2023/11/05 02:53:21;;;;;;;4.82;0.60;;;;;;;8.39;100.00;92082.09;5069825;28;20048;-81
2023/11/05 02:55:48;;;;;;;4.25;0.75;;;;;;;8.52;100.00;92091.34;5066209;28;20049;-81
2023/11/05 02:58:17;;;;;;;2.65;0.60;;;;;;;8.24;100.00;92056.97;5062827;28;20044;-81
2023/11/05 03:00:45;;;;;;;4.10;0.63;;;;;;;8.50;100.00;92088.22;5066500;28;20044;-81
2023/11/05 03:03:12;;;;;;;6.10;1.10;;;;;;;8.49;100.00;92102.03;5067799;28;20048;-82
2023/11/05 03:05:42;;;;;;;2.83;0.65;;;;;;;8.27;100.00;92083.88;5067487;28;20094;-81
2023/11/05 03:08:09;;;;;;;2.40;0.70;;;;;;;8.34;100.00;92088.91;5066178;28;20505;-81
2023/11/05 03:10:36;;;;;;;3.78;0.60;;;;;;;8.50;100.00;92110.47;5063609;28;20076;-80
2023/11/05 03:13:03;;;;;;;2.33;0.47;;;;;;;8.51;100.00;92119.69;5066584;28;20045;-80
2023/11/05 03:15:31;;;;;;;5.65;1.40;;;;;;;8.54;100.00;92127.75;5063226;28;20485;-81
2023/11/05 03:17:58;;;;;;;4.63;1.20;;;;;;;8.59;100.00;92124.53;5070151;28;20057;-81
2023/11/05 03:20:25;;;;;;;4.00;1.40;;;;;;;8.58;100.00;92140.88;5064649;28;20040;-81
2023/11/05 03:22:52;;;;;;;4.95;1.17;;;;;;;8.52;100.00;92145.09;5066446;28;21063;-80
2023/11/05 03:25:19;;;;;;;3.95;1.02;;;;;;;8.55;100.00;92125.97;5069950;28;20070;-80
2023/11/05 03:27:46;;;;;;;5.97;1.00;;;;;;;8.42;100.00;92114.94;5068206;28;20048;-79
2023/11/05 03:30:13;;;;;;;3.15;0.90;;;;;;;8.54;100.00;92130.31;5068049;28;20049;-79
2023/11/05 03:32:42;;;;;;;2.55;0.73;;;;;;;8.48;100.00;92110.69;5070389;28;20048;-79
2023/11/05 03:35:09;;;;;;;4.10;1.00;;;;;;;8.50;100.00;92106.13;5068276;28;20051;-77
2023/11/05 03:37:36;;;;;;;3.13;0.70;;;;;;;8.59;100.00;92113.50;5065930;28;20131;-79
2023/11/05 03:40:04;;;;;;;2.10;0.70;;;;;;;8.59;100.00;92098.13;5062756;28;20447;-79
2023/11/05 03:42:31;;;;;;;1.67;0.60;;;;;;;8.60;100.00;92097.16;5069634;28;20777;-80
2023/11/05 03:44:58;;;;;;;3.08;0.65;;;;;;;8.54;100.00;92103.94;5065867;28;20040;-80
2023/11/05 03:47:25;;;;;;;1.45;0.47;;;;;;;8.57;100.00;92097.59;5066268;28;20537;-80
2023/11/05 03:49:53;;;;;;;1.75;0.60;;;;;;;8.59;100.00;92100.69;5065058;28;20108;-80
2023/11/05 03:52:20;;;;;;;3.55;0.65;;;;;;;8.54;100.00;92097.03;5071771;28;20060;-79
2023/11/05 03:54:47;;;;;;;4.18;0.50;;;;;;;8.24;100.00;92054.41;5066960;28;20799;-79
2023/11/05 03:57:14;;;;;;;2.22;0.60;;;;;;;8.57;100.00;92093.25;5063945;28;20164;-79
2023/11/05 03:59:40;;;;;;;3.47;0.73;;;;;;;8.46;100.00;92073.53;5058100;28;20103;-81
2023/11/05 04:02:07;;;;;;;2.85;0.65;;;;;;;8.61;100.00;92101.25;5068009;28;20048;-78
2023/11/05 04:04:34;;;;;;;3.42;0.40;;;;;;;8.49;100.00;92084.09;5066356;28;20453;-79
2023/11/05 04:07:05;;;;;;;4.15;0.85;;;;;;;8.49;100.00;92067.97;5067806;28;20048;-81
2023/11/05 04:09:32;;;;;;;2.50;0.95;;;;;;;8.61;100.00;92096.91;5063043;28;20167;-79
2023/11/05 04:11:59;;;;;;;3.33;1.20;;;;;;;8.62;100.00;92110.50;5070024;28;20159;-79
2023/11/05 04:14:26;;;;;;;3.15;0.60;;;;;;;8.50;100.00;92083.09;5069843;28;20049;-79
2023/11/05 04:16:53;;;;;;;3.13;0.80;;;;;;;8.58;100.00;92101.69;5072845;28;20079;-78
2023/11/05 04:19:20;;;;;;;5.22;1.67;;;;;;;8.68;100.00;92119.84;5069719;28;20052;-79
2023/11/05 04:21:47;;;;;;;3.45;1.10;;;;;;;8.63;100.00;92117.16;5068581;28;20381;-79
2023/11/05 04:24:15;;;;;;;2.63;0.80;;;;;;;8.73;100.00;92104.56;5069654;28;20063;-78
2023/11/05 04:26:42;;;;;;;2.30;0.55;;;;;;;8.75;100.00;92106.91;5071622;28;20056;-78
2023/11/05 04:29:09;;;;;;;2.95;0.70;;;;;;;8.72;100.00;92115.81;5068058;28;20048;-78
2023/11/05 04:31:36;;;;;;;3.08;0.73;;;;;;;8.61;100.00;92101.25;5070967;28;20059;-78
2023/11/05 04:34:04;;;;;;;5.05;1.38;;;;;;;8.55;100.00;92092.69;5075012;28;20052;-79
2023/11/05 04:36:31;;;;;;;2.80;0.80;;;;;;;8.84;100.00;92115.03;5070285;28;20045;-79
2023/11/05 04:38:58;;;;;;;3.28;0.65;;;;;;;8.85;100.00;92122.50;5072557;28;20051;-80
2023/11/05 04:41:26;;;;;;;3.50;0.90;;;;;;;8.81;100.00;92123.94;5071500;28;20056;-80
2023/11/05 04:43:53;;;;;;;1.92;0.70;;;;;;;8.68;100.00;92099.34;5070223;28;20516;-81
2023/11/05 04:46:20;;;;;;;3.28;0.90;;;;;;;8.82;100.00;92133.19;5069020;28;20416;-80
2023/11/05 04:48:47;;;;;;;2.85;0.85;;;;;;;8.83;100.00;92127.03;5072409;28;20060;-80
2023/11/05 04:51:13;;;;;;;2.95;0.68;;;;;;;8.62;100.00;92105.38;5071595;28;20425;-80
2023/11/05 04:53:40;;;;;;;1.92;1.08;;;;;;;8.80;100.00;92135.94;5068020;28;20071;-80
2023/11/05 04:56:07;;;;;;;3.15;1.00;;;;;;;8.85;100.00;92132.72;5071764;28;20780;-80
2023/11/05 04:58:36;;;;;;;5.25;0.90;;;;;;;8.76;100.00;92100.78;5069057;28;20052;-79
2023/11/05 05:01:04;;;;;;;5.03;1.73;;;;;;;8.90;100.00;92125.16;5068097;28;20048;-80
2023/11/05 05:03:31;;;;;;;4.22;1.48;;;;;;;8.89;100.00;92131.25;5064979;28;20040;-80
2023/11/05 05:05:57;;;;;;;6.68;1.73;;;;;;;8.74;100.00;92120.72;5069227;28;20496;-80
2023/11/05 05:08:24;;;;;;;6.88;3.05;;;;;;;8.81;100.00;92145.19;5067407;28;20047;-79
2023/11/05 05:10:52;;;;;;;7.00;2.35;;;;;;;8.79;100.00;92149.75;5065694;28;20048;-80
2023/11/05 05:13:18;;;;;;;6.97;2.97;;;;;;;8.73;100.00;92157.56;5067328;28;20438;-79
2023/11/05 05:15:47;;;;;;;10.02;3.08;;;;;;;8.73;100.00;92157.56;5066595;28;20044;-80
2023/11/05 05:18:13;;;;;;;5.18;2.65;;;;;;;8.64;100.00;92140.00;5065815;28;20067;-79
2023/11/05 05:20:40;;;;;;;10.48;3.08;;;;;;;8.46;100.00;92125.50;5066772;28;20041;-78
2023/11/05 05:23:07;;;;;;;7.80;2.72;;;;;;;8.57;100.00;92141.09;5066770;28;20041;-78
2023/11/05 05:25:34;;;;;;;11.00;4.35;;;;;;;8.60;100.00;92136.31;5066848;28;20044;-79
2023/11/05 05:28:01;;;;;;;8.43;3.90;;;;;;;8.60;100.00;92140.66;5064079;28;20040;-79
2023/11/05 05:30:28;;;;;;;6.65;2.30;;;;;;;8.42;100.00;92117.50;5065889;28;20048;-78
2023/11/05 05:32:57;;;;;;;6.43;2.08;;;;;;;8.57;100.00;92135.97;5066148;28;20048;-78
2023/11/05 05:35:24;;;;;;;4.95;1.42;;;;;;;8.55;100.00;92125.97;5068115;28;20045;-78
2023/11/05 05:37:51;;;;;;;4.75;1.90;;;;;;;8.63;100.00;92135.09;5066533;28;20761;-78
2023/11/05 05:40:18;;;;;;;4.38;2.33;;;;;;;8.60;100.00;92144.00;5066325;28;20052;-78
2023/11/05 05:42:44;;;;;;;5.30;1.83;;;;;;;8.59;100.00;92142.44;5068698;28;20052;-77
2023/11/05 05:45:12;;;;;;;4.75;1.58;;;;;;;8.64;100.00;92155.34;5069272;28;20523;-77
2023/11/05 05:47:39;;;;;;;4.97;1.75;;;;;;;8.41;100.00;92107.47;5064945;28;20495;-77
2023/11/05 05:50:08;;;;;;;2.80;1.00;;;;;;;8.68;100.00;92156.47;5063397;28;20059;-77
2023/11/05 05:52:35;;;;;;;5.00;1.77;;;;;;;8.51;100.00;92132.50;5064612;28;20078;-77
2023/11/05 05:55:04;;;;;;;6.07;1.30;;;;;;;8.66;100.00;92150.00;5065381;28;20041;-77
2023/11/05 05:57:31;;;;;;;3.20;1.50;;;;;;;8.66;100.00;92148.22;5060562;28;20044;-77
2023/11/05 05:59:58;;;;;;;6.32;2.38;;;;;;;8.75;100.00;92145.31;5066336;28;20055;-77
2023/11/05 06:02:25;;;;;;;7.47;3.08;;;;;;;8.74;100.00;92141.22;5065547;28;20408;-79
2023/11/05 06:04:51;;;;;;;5.60;2.30;;;;;;;8.80;100.00;92137.75;5060560;28;20052;-80
2023/11/05 06:07:20;;;;;;;9.25;4.10;;;;;;;8.91;100.00;92136.94;5065083;28;20045;-79
2023/11/05 06:09:46;;;;;;;5.07;1.90;;;;;;;9.04;100.00;92133.38;5063356;28;20040;-79
2023/11/05 06:12:13;;;;;;;6.82;2.17;;;;;;;9.12;100.00;92134.00;5065073;28;20523;-79
2023/11/05 06:14:40;;;;;;;7.60;3.17;;;;;;;9.19;100.00;92129.53;5065305;28;20557;-79
2023/11/05 06:17:07;;;;;;;2.10;0.82;;;;;;;9.33;100.00;92128.25;5068538;28;20053;-80
2023/11/05 06:19:34;;;;;;;4.13;1.30;;;;;;;9.41;100.00;92136.59;5067419;28;20048;-79
2023/11/05 06:22:01;;;;;;;4.57;1.17;;;;;;;9.47;100.00;92128.78;5068069;28;20040;-80
2023/11/05 06:24:31;;;;;;;2.97;0.98;;;;;;;9.49;100.00;92116.50;5067426;28;20474;-80
2023/11/05 06:26:58;;;;;;;2.92;0.75;;;;;;;9.75;100.00;92140.03;5068808;28;20050;-78
2023/11/05 06:29:25;;;;;;;3.38;0.95;;;;;;;9.80;100.00;92130.84;5067591;28;20052;-78
2023/11/05 06:31:52;;;;;;;2.58;0.93;;;;;;;9.86;100.00;92129.94;5066133;28;20052;-78
2023/11/05 06:34:19;;;;;;;3.85;1.27;;;;;;;10.11;100.00;92151.88;5071195;28;20420;-79
2023/11/05 06:36:58;;;;;;;5.40;1.45;;;;;;;10.13;100.00;92140.34;5067836;28;20055;-79
2023/11/05 06:39:25;;;;;;;3.17;1.00;;;;;;;10.38;100.00;92156.38;5064341;28;20047;-79
2023/11/05 06:41:57;;;;;;;2.30;0.70;;;;;;;10.49;100.00;92162.47;5063651;28;20049;-79
2023/11/05 06:44:46;;;;;;;4.20;1.23;;;;;;;9.81;100.00;92042.66;5059368;28;20652;-79
2023/11/05 06:47:13;;;;;;;4.82;2.30;;;;;;;10.64;100.00;92142.13;5057906;28;20076;-80
2023/11/05 06:49:40;;;;;;;5.82;2.15;;;;;;;10.93;98.55;92172.06;5067725;28;20053;-80
2023/11/05 06:52:08;;;;;;;4.93;2.22;;;;;;;11.02;99.34;92168.06;5065016;28;20045;-80
2023/11/05 06:54:36;;;;;;;3.00;1.90;;;;;;;11.13;98.30;92161.25;5067413;28;20043;-79
2023/11/05 06:57:04;;;;;;;4.57;2.50;;;;;;;11.31;97.13;92165.34;5066241;28;20485;-79
2023/11/05 06:59:31;;;;;;;3.03;1.45;;;;;;;11.46;94.69;92159.59;5062142;28;20036;-78
2023/11/05 07:01:59;;;;;;;2.45;1.50;;;;;;;11.34;94.40;92138.38;5063780;28;20041;-78
2023/11/05 07:04:26;;;;;;;3.25;1.52;;;;;;;11.27;94.61;92099.19;5066878;28;20118;-79
2023/11/05 07:06:52;;;;;;;4.43;1.60;;;;;;;11.72;95.18;92162.41;5063953;28;20051;-79
2023/11/05 07:09:19;;;;;;;3.35;1.60;;;;;;;11.83;95.33;92159.94;5059262;28;20051;-79
2023/11/05 07:11:46;;;;;;;3.17;1.73;;;;;;;12.03;94.04;92161.91;5058527;28;20049;-78
2023/11/05 07:14:15;;;;;;;4.75;1.58;;;;;;;12.07;92.85;92157.88;5062011;28;20056;-78
2023/11/05 07:17:08;;;;;;;4.30;1.67;;;;;;;12.02;92.27;92122.56;5063285;28;20501;-79
2023/11/05 07:19:43;;;;;;;4.53;1.42;;;;;;;12.23;92.13;92133.00;5062056;28;20040;-78
2023/11/05 07:22:12;;;;;;;5.75;2.13;;;;;;;12.25;90.67;92109.59;5060237;28;20075;-78
2023/11/05 07:24:39;;;;;;;6.88;2.97;;;;;;;12.35;90.30;92106.34;5060841;28;21028;-79
2023/11/05 07:27:06;;;;;;;8.55;3.08;;;;;;;12.63;88.48;92132.78;5060516;28;20076;-78
2023/11/05 07:29:34;;;;;;;5.97;2.42;;;;;;;12.81;89.11;92126.44;5059775;28;20147;-78
2023/11/05 07:32:02;;;;;;;4.68;2.28;;;;;;;12.74;87.70;92094.97;5060598;28;20048;-80
2023/11/05 07:34:29;;;;;;;7.38;3.88;;;;;;;12.95;87.58;92108.72;5059542;28;20044;-78
2023/11/05 07:36:57;;;;;;;3.42;1.75;;;;;;;12.79;86.51;92077.75;5058427;28;20048;-78
2023/11/05 07:39:23;;;;;;;6.53;2.53;;;;;;;13.10;86.10;92118.31;5060559;28;20470;-77
2023/11/05 07:41:50;;;;;;;2.97;1.30;;;;;;;13.19;85.17;92105.72;5062938;28;20662;-77
2023/11/05 07:44:18;;;;;;;2.63;0.90;;;;;;;13.31;85.48;92101.13;5066657;28;20523;-78
2023/11/05 07:46:46;;;;;;;4.22;0.73;;;;;;;13.34;84.16;92099.84;5067334;28;20075;-77
2023/11/05 07:49:13;;;;;;;2.67;0.77;;;;;;;13.43;83.36;92108.63;5065133;28;20095;-79
2023/11/05 07:51:40;;;;;;;2.28;0.77;;;;;;;13.51;84.28;92101.47;5064403;28;21003;-78
2023/11/05 07:54:07;;;;;;;2.83;1.40;;;;;;;13.63;83.54;92104.56;5064357;28;20051;-79
2023/11/05 07:56:34;;;;;;;2.28;0.60;;;;;;;13.75;83.81;92105.09;5064070;28;20527;-77
2023/11/05 07:59:03;;;;;;;4.25;0.80;;;;;;;13.78;83.27;92113.38;5062831;28;20049;-78
2023/11/05 08:01:30;;;;;;;4.80;1.38;;;;;;;13.85;82.41;92101.75;5064005;28;20436;-78
2023/11/05 08:03:58;;;;;;;3.53;1.30;;;;;;;13.94;82.53;92099.47;5064807;28;20048;-78
2023/11/05 08:06:25;;;;;;;3.17;0.90;;;;;;;13.81;82.79;92056.06;5063652;28;21138;-78
2023/11/05 08:08:52;;;;;;;3.95;1.13;;;;;;;14.12;83.04;92067.16;5063890;28;21069;-77
2023/11/05 08:11:19;;;;;;;5.43;1.73;;;;;;;14.27;81.98;92075.94;5063125;28;20058;-78
2023/11/05 08:13:46;;;;;;;7.60;2.75;;;;;;;14.31;81.62;92076.97;5063320;28;21147;-78
2023/11/05 08:16:13;;;;;;;4.88;1.40;;;;;;;14.32;79.91;92077.72;5061993;28;20058;-78
2023/11/05 08:18:40;;;;;;;3.78;1.58;;;;;;;14.33;79.94;92077.47;5062430;28;20942;-77
2023/11/05 08:21:08;;;;;;;4.63;1.77;;;;;;;14.36;80.41;92060.69;5064082;28;21159;-79
2023/11/05 08:23:36;;;;;;;3.22;0.85;;;;;;;14.47;79.33;92056.25;5063079;28;20813;-77
2023/11/05 08:26:03;;;;;;;4.10;0.80;;;;;;;14.56;78.51;92039.97;5063663;28;20492;-77
2023/11/05 08:28:29;;;;;;;4.15;1.00;;;;;;;14.62;79.14;92056.22;5064932;28;20052;-80
2023/11/05 08:30:56;;;;;;;3.33;0.50;;;;;;;14.56;77.75;92042.56;5064156;28;20063;-79
2023/11/05 08:33:23;;;;;;;1.85;0.65;;;;;;;14.63;76.96;92057.78;5064821;28;20064;-79
2023/11/05 08:35:51;;;;;;;2.30;0.90;;;;;;;14.77;77.68;92057.25;5065391;28;20098;-79
2023/11/05 08:38:19;;;;;;;4.90;0.90;;;;;;;14.87;77.51;92051.28;5069120;28;20150;-79
2023/11/05 08:40:46;;;;;;;4.55;1.00;;;;;;;15.01;75.51;92062.59;5070552;28;20040;-78
2023/11/05 08:43:13;;;;;;;6.30;0.77;;;;;;;15.03;74.66;92070.06;5067668;28;20135;-80
2023/11/05 08:45:40;;;;;;;2.58;0.60;;;;;;;15.13;74.40;92070.03;5065148;28;20048;-81
2023/11/05 08:48:06;;;;;;;1.35;0.40;;;;;;;15.22;73.84;92071.03;5062805;28;20045;-81
2023/11/05 08:50:33;;;;;;;1.42;0.50;;;;;;;14.80;73.61;92034.25;5062471;28;20052;-81
2023/11/05 08:53:00;;;;;;;1.98;0.70;;;;;;;15.15;75.78;92056.84;5061804;28;20049;-80
2023/11/05 08:55:29;;;;;;;2.08;0.75;;;;;;;14.86;72.67;92024.63;5062396;28;20091;-80
2023/11/05 08:57:57;;;;;;;2.35;0.60;;;;;;;15.06;73.62;92038.53;5064017;28;20048;-80
2023/11/05 09:00:26;;;;;;;2.47;0.60;;;;;;;15.12;72.06;92049.59;5065470;28;20044;-80
2023/11/05 09:02:53;;;;;;;2.97;0.60;;;;;;;15.02;70.89;92051.22;5062340;28;20052;-78
2023/11/05 09:05:22;;;;;;;3.42;0.45;;;;;;;14.98;70.80;92049.41;5067652;28;20048;-79
2023/11/05 09:07:51;;;;;;;2.63;1.05;;;;;;;15.05;71.63;92037.75;5067852;28;20076;-80
2023/11/05 09:10:20;;;;;;;7.00;1.20;;;;;;;15.18;71.90;92036.38;5069330;28;20053;-81
2023/11/05 09:12:49;;;;;;;1.45;0.43;;;;;;;15.28;71.41;92025.19;5068255;28;20060;-79
2023/11/05 09:15:16;;;;;;;2.22;0.63;;;;;;;15.37;71.67;92028.03;5068311;28;20094;-80
2023/11/05 09:17:43;;;;;;;2.35;0.50;;;;;;;15.35;69.75;92037.84;5067438;28;20536;-79
2023/11/05 09:20:11;;;;;;;1.88;0.40;;;;;;;15.19;70.29;92009.47;5065472;28;20041;-80
2023/11/05 09:22:39;;;;;;;4.20;0.88;;;;;;;15.20;70.54;92011.03;5064975;28;20497;-79
2023/11/05 09:25:07;;;;;;;6.85;0.77;;;;;;;15.40;69.39;92029.28;5062749;28;20854;-78
2023/11/05 09:27:34;;;;;;;3.63;0.77;;;;;;;15.24;68.99;92011.28;5062638;28;20064;-79
2023/11/05 09:30:03;;;;;;;2.42;0.70;;;;;;;15.47;69.03;92035.69;5062507;28;20056;-78
2023/11/05 09:32:30;;;;;;;2.65;0.50;;;;;;;15.49;69.69;92030.25;5062334;28;20072;-80
2023/11/05 09:35:16;;;;;;;2.30;0.70;;;;;;;15.32;67.22;92015.13;5063088;28;20059;-79
2023/11/05 09:37:44;;;;;;;3.42;0.40;;;;;;;15.30;66.41;92043.84;5062867;28;20052;-79
2023/11/05 09:40:13;;;;;;;4.10;0.52;;;;;;;15.29;68.31;92039.72;5063016;28;20068;-79
2023/11/05 09:42:45;;;;;;;3.40;0.43;;;;;;;15.20;67.89;92021.38;5063674;28;20416;-82
2023/11/05 09:45:14;;;;;;;3.67;0.50;;;;;;;15.21;67.92;92033.28;5062178;28;20142;-80
2023/11/05 09:47:42;;;;;;;2.60;0.43;;;;;;;15.28;67.81;92061.41;5065794;28;21164;-81
2023/11/05 09:50:12;;;;;;;2.42;0.60;;;;;;;15.17;66.67;92057.34;5063535;28;20049;-80
2023/11/05 09:52:40;;;;;;;1.13;0.40;;;;;;;15.16;67.24;92053.22;5064378;28;20121;-81
2023/11/05 09:55:08;;;;;;;2.55;0.75;;;;;;;15.09;66.83;92025.06;5063536;28;20090;-80
2023/11/05 09:57:36;;;;;;;3.42;0.60;;;;;;;14.97;66.22;92015.03;5064741;28;20048;-81
2023/11/05 10:00:08;;;;;;;1.92;0.60;;;;;;;15.10;67.39;92024.78;5063159;28;20154;-80
2023/11/05 10:02:56;;;;;;;1.38;0.32;;;;;;;15.01;67.01;91992.00;5065051;28;20130;-80
2023/11/05 10:05:24;;;;;;;2.15;0.38;;;;;;;15.10;68.35;91998.91;5064820;28;20427;-82
2023/11/05 10:07:51;;;;;;;1.65;0.38;;;;;;;15.05;67.68;92021.47;5064486;28;20523;-81
2023/11/05 10:10:18;;;;;;;3.72;0.50;;;;;;;15.13;66.73;92020.91;5066089;28;20044;-81
2023/11/05 10:12:45;;;;;;;2.28;0.43;;;;;;;15.01;67.23;91986.81;5068819;28;20492;-80
2023/11/05 10:15:12;;;;;;;2.58;0.70;;;;;;;15.05;67.08;91977.50;5063463;28;20060;-80
2023/11/05 10:17:39;;;;;;;1.95;0.50;;;;;;;15.05;68.77;91964.56;5066510;28;20056;-80
2023/11/05 10:20:11;;;;;;;2.90;0.40;;;;;;;15.20;67.77;91979.22;5069647;28;20045;-81
2023/11/05 10:22:43;;;;;;;1.77;0.63;;;;;;;15.26;68.53;91967.00;5064442;28;20051;-81
2023/11/05 10:25:22;;;;;;;3.03;0.60;;;;;;;15.31;68.43;91961.81;5068627;28;20047;-81
2023/11/05 10:27:48;;;;;;;2.88;0.60;;;;;;;15.01;68.34;91917.78;5066313;28;20052;-81
2023/11/05 10:30:18;;;;;;;3.50;0.80;;;;;;;15.30;69.01;91950.69;5065122;28;20059;-82
2023/11/05 10:32:47;;;;;;;1.92;0.25;;;;;;;15.42;68.13;91963.28;5067320;28;20068;-81
2023/11/05 10:35:18;;;;;;;2.47;0.50;;;;;;;15.46;69.33;91969.47;5067940;28;20045;-81
2023/11/05 10:37:46;;;;;;;3.20;0.70;;;;;;;15.43;67.15;91975.19;5070342;28;20098;-82
2023/11/05 10:40:14;;;;;;;1.80;0.47;;;;;;;15.21;67.19;91947.91;5067160;28;20045;-81
2023/11/05 10:42:41;;;;;;;3.45;0.40;;;;;;;15.29;67.42;91962.09;5065586;28;20048;-80
2023/11/05 10:45:11;;;;;;;1.77;0.52;;;;;;;15.50;67.45;91959.34;5066469;28;20409;-81
2023/11/05 10:47:38;;;;;;;2.17;0.50;;;;;;;15.49;67.59;91940.47;5067475;28;20102;-83
2023/11/05 10:50:10;;;;;;;3.25;0.60;;;;;;;15.52;67.11;91938.38;5066605;28;20048;-80
2023/11/05 10:52:40;;;;;;;3.42;0.40;;;;;;;15.46;66.89;91953.19;5065603;28;20051;-82
2023/11/05 10:55:09;;;;;;;3.35;0.40;;;;;;;15.49;67.04;91935.28;5065188;28;20041;-81
2023/11/05 10:57:46;;;;;;;1.33;0.38;;;;;;;15.40;66.79;91916.22;5063564;28;20048;-79
2023/11/05 11:00:46;;;;;;;5.97;0.45;;;;;;;15.23;66.40;91890.75;5067095;28;20049;-81
2023/11/05 11:03:14;;;;;;;3.80;0.38;;;;;;;14.98;66.97;91850.31;5067443;28;20051;-80
2023/11/05 11:06:02;;;;;;;1.25;0.57;;;;;;;15.31;67.47;91904.88;5064330;28;20086;-81
2023/11/05 11:08:31;;;;;;;3.83;1.17;;;;;;;15.39;67.18;91912.09;5057890;28;20049;-80
2023/11/05 11:11:13;;;;;;;7.13;2.67;;;;;;;15.42;67.14;91892.66;5066231;28;20052;-82
2023/11/05 11:13:56;;;;;;;7.03;2.85;;;;;;;15.61;67.27;91908.28;5064601;28;20831;-81
2023/11/05 11:16:30;;;;;;;3.53;1.17;;;;;;;15.32;66.50;91878.75;5065879;28;20052;-82
2023/11/05 11:19:00;;;;;;;2.58;0.90;;;;;;;15.32;67.32;91888.34;5066990;28;20056;-81
2023/11/05 11:21:27;;;;;;;2.80;0.90;;;;;;;15.31;67.03;91890.16;5069265;28;20048;-81
2023/11/05 11:24:03;;;;;;;2.45;1.08;;;;;;;15.13;67.49;91877.88;5069572;28;20044;-83
2023/11/05 11:26:32;;;;;;;3.30;0.60;;;;;;;15.32;68.67;91904.63;5066882;28;20472;-81
2023/11/05 11:29:04;;;;;;;2.90;0.70;;;;;;;15.13;67.99;91875.31;5068394;28;20124;-79
2023/11/05 11:31:33;;;;;;;3.75;0.60;;;;;;;15.34;68.10;91917.31;5068440;28;20525;-81
2023/11/05 11:34:00;;;;;;;2.70;0.50;;;;;;;15.34;67.76;91923.25;5066959;28;20079;-80
2023/11/05 11:36:27;;;;;;;3.60;0.73;;;;;;;15.33;67.86;91913.16;5067075;28;20059;-83
2023/11/05 11:38:56;;;;;;;2.00;0.60;;;;;;;15.22;67.23;91897.72;5069356;28;20048;-80